createdAt,value
2023-02-12T00:00:46.218Z,96.60
2023-02-12T00:03:12.718Z,97.14
2023-02-12T00:05:41.575Z,96.32
2023-02-12T00:08:09.264Z,96.61
2023-02-12T00:10:40.594Z,96.92
2023-02-12T00:13:07.037Z,97.14
2023-02-12T00:15:34.743Z,97.34
2023-02-12T00:18:02.721Z,97.51
2023-02-12T00:20:29.438Z,97.29
2023-02-12T00:22:56.344Z,97.24
2023-02-12T00:25:22.794Z,96.45
2023-02-12T00:27:49.817Z,96.32
2023-02-12T00:30:17.250Z,96.79
2023-02-12T00:32:46.918Z,97.06
2023-02-12T00:35:13.732Z,97.13
2023-02-12T00:37:40.232Z,96.74
2023-02-12T00:40:07.731Z,96.80
2023-02-12T00:42:35.825Z,97.06
2023-02-12T00:45:03.768Z,96.65
2023-02-12T00:47:30.168Z,97.42
2023-02-12T00:49:56.629Z,96.89
2023-02-12T00:52:23.103Z,96.70
2023-02-12T00:54:49.958Z,96.83
2023-02-12T00:57:17.604Z,96.72
2023-02-12T00:59:44.035Z,97.19
2023-02-12T01:02:10.505Z,97.03
2023-02-12T01:04:37.028Z,97.37
2023-02-12T01:07:03.714Z,97.43
2023-02-12T01:09:30.224Z,97.66
2023-02-12T01:11:56.697Z,97.31
2023-02-12T01:14:23.205Z,97.14
2023-02-12T01:16:49.751Z,97.12
2023-02-12T01:19:16.392Z,97.81
2023-02-12T01:21:42.893Z,97.02
2023-02-12T01:24:10.025Z,97.60
2023-02-12T01:26:36.768Z,97.31
2023-02-12T01:29:06.142Z,97.18
2023-02-12T01:31:38.590Z,98.00
2023-02-12T01:34:06.355Z,97.75
2023-02-12T01:36:33.574Z,97.17
2023-02-12T01:39:02.665Z,97.03
2023-02-12T01:41:32.888Z,96.94
2023-02-12T01:44:06.694Z,96.93
2023-02-12T01:46:33.209Z,97.66
2023-02-12T01:49:00.944Z,97.91
2023-02-12T01:51:28.355Z,97.15
2023-02-12T01:53:55.753Z,96.99
2023-02-12T01:56:23.822Z,97.22
2023-02-12T01:58:51.813Z,96.96
2023-02-12T02:01:23.177Z,97.92
2023-02-12T02:03:52.810Z,97.84
2023-02-12T02:06:28.874Z,96.84
2023-02-12T02:08:56.767Z,97.42
2023-02-12T02:11:42.626Z,97.98
2023-02-12T02:14:28.311Z,96.86
2023-02-12T02:17:27.167Z,96.64
2023-02-12T02:20:15.957Z,97.62
2023-02-12T02:23:15.601Z,97.54
2023-02-12T02:26:20.291Z,97.44
2023-02-12T02:29:05.238Z,97.13
2023-02-12T02:31:47.503Z,97.81
2023-02-12T02:34:52.651Z,97.55
2023-02-12T02:37:30.164Z,96.95
2023-02-12T02:40:26.547Z,97.04
2023-02-12T02:43:04.498Z,97.97
2023-02-12T02:45:47.363Z,97.72
2023-02-12T02:48:24.019Z,97.89
2023-02-12T02:51:03.848Z,97.15
2023-02-12T02:53:37.509Z,97.85
2023-02-12T02:56:07.714Z,96.44
2023-02-12T02:58:44.757Z,97.46
2023-02-12T03:01:21.902Z,96.80
2023-02-12T03:04:01.847Z,96.52
2023-02-12T03:06:45.116Z,97.24
2023-02-12T03:09:16.884Z,97.65
2023-02-12T03:11:43.676Z,97.47
2023-02-12T03:14:18.065Z,97.35
2023-02-12T03:17:04.873Z,97.57
2023-02-12T03:19:43.013Z,97.63
2023-02-12T03:22:13.413Z,97.48
2023-02-12T03:24:44.445Z,97.71
2023-02-12T03:27:15.447Z,97.04
2023-02-12T03:29:41.997Z,97.15
2023-02-12T03:32:22.095Z,97.70
2023-02-12T03:35:12.286Z,97.41
2023-02-12T03:38:01.141Z,96.89
2023-02-12T03:40:51.255Z,97.77
2023-02-12T03:43:27.370Z,97.53
2023-02-12T03:46:01.356Z,97.26
2023-02-12T03:48:34.073Z,97.38
2023-02-12T03:51:05.811Z,96.30
2023-02-12T03:53:32.615Z,97.38
2023-02-12T03:56:10.234Z,96.78
2023-02-12T03:58:37.486Z,97.16
2023-02-12T04:01:04.314Z,96.17
2023-02-12T04:03:31.399Z,96.70
2023-02-12T04:05:57.872Z,97.36
2023-02-12T04:08:25.979Z,96.95
2023-02-12T04:11:10.797Z,96.71
2023-02-12T04:14:15.971Z,96.70
2023-02-12T04:17:04.399Z,96.62
2023-02-12T04:19:41.554Z,97.13
2023-02-12T04:22:20.917Z,96.31
2023-02-12T04:24:54.596Z,97.03
2023-02-12T04:27:29.209Z,97.07
2023-02-12T04:30:03.028Z,97.16
2023-02-12T04:32:41.495Z,96.70
2023-02-12T04:35:34.115Z,96.71
2023-02-12T04:38:08.777Z,96.36
2023-02-12T04:40:36.086Z,97.33
2023-02-12T04:43:03.386Z,97.54
2023-02-12T04:45:31.901Z,97.10
2023-02-12T04:47:58.668Z,96.59
2023-02-12T04:50:25.821Z,97.33
2023-02-12T04:52:52.730Z,97.02
2023-02-12T04:55:19.152Z,96.55
2023-02-12T04:57:45.691Z,96.74
2023-02-12T05:00:14.728Z,97.32
2023-02-12T05:02:41.185Z,97.12
2023-02-12T05:05:07.928Z,97.77
2023-02-12T05:07:34.443Z,97.46
2023-02-12T05:10:00.972Z,97.23
2023-02-12T05:12:27.412Z,96.60
2023-02-12T05:14:53.810Z,96.70
2023-02-12T05:17:22.835Z,97.56
2023-02-12T05:19:49.273Z,96.83
2023-02-12T05:22:15.725Z,97.04
2023-02-12T05:24:42.237Z,97.64
2023-02-12T05:27:09.287Z,97.73
2023-02-12T05:29:36.288Z,97.87
2023-02-12T05:32:03.019Z,97.77
2023-02-12T05:34:29.695Z,96.84
2023-02-12T05:36:56.285Z,97.92
2023-02-12T05:39:22.676Z,97.79
2023-02-12T05:41:49.166Z,96.79
2023-02-12T05:44:15.625Z,97.34
2023-02-12T05:46:42.576Z,96.85
2023-02-12T05:49:09.696Z,97.43
2023-02-12T05:51:36.776Z,97.61
2023-02-12T05:54:05.465Z,97.44
2023-02-12T05:56:36.945Z,96.66
2023-02-12T05:59:08.630Z,97.16
2023-02-12T06:01:37.844Z,97.86
2023-02-12T06:04:06.838Z,97.19
2023-02-12T06:06:34.185Z,97.93
2023-02-12T06:09:01.075Z,96.47
2023-02-12T06:11:28.156Z,97.51
2023-02-12T06:13:54.806Z,97.27
2023-02-12T06:16:27.809Z,97.08
2023-02-12T06:18:55.969Z,96.89
2023-02-12T06:21:24.179Z,96.69
2023-02-12T06:23:52.201Z,97.41
2023-02-12T06:26:19.225Z,97.39
2023-02-12T06:28:46.184Z,97.12
2023-02-12T06:31:28.077Z,97.39
2023-02-12T06:33:57.940Z,97.27
2023-02-12T06:36:24.488Z,97.39
2023-02-12T06:38:51.552Z,97.77
2023-02-12T06:41:18.535Z,97.01
2023-02-12T06:43:45.138Z,97.29
2023-02-12T06:46:14.191Z,97.18
2023-02-12T06:48:40.861Z,97.36
2023-02-12T06:51:14.844Z,97.26
2023-02-12T06:53:41.593Z,96.95
2023-02-12T06:56:13.215Z,97.90
2023-02-12T06:58:41.390Z,97.84
2023-02-12T07:01:13.597Z,96.75
2023-02-12T07:03:48.487Z,97.25
2023-02-12T07:06:15.256Z,97.85
2023-02-12T07:08:41.777Z,97.36
2023-02-12T07:11:08.704Z,97.46
2023-02-12T07:13:35.415Z,97.61
2023-02-12T07:16:07.278Z,96.72
2023-02-12T07:18:37.569Z,96.48
2023-02-12T07:21:05.102Z,96.89
2023-02-12T07:23:32.099Z,97.02
2023-02-12T07:26:04.610Z,97.08
2023-02-12T07:28:34.059Z,96.71
2023-02-12T07:31:26.812Z,96.65
2023-02-12T07:33:55.410Z,95.99
2023-02-12T07:36:22.369Z,96.74
2023-02-12T07:38:49.184Z,95.67
2023-02-12T07:41:20.105Z,96.54
2023-02-12T07:43:47.969Z,96.05
2023-02-12T07:46:21.158Z,95.78
2023-02-12T07:48:47.897Z,96.81
2023-02-12T07:51:16.476Z,96.20
2023-02-12T07:53:43.129Z,94.96
2023-02-12T07:56:10.803Z,95.69
2023-02-12T07:58:38.414Z,95.82
2023-02-12T08:01:17.354Z,95.68
2023-02-12T08:03:44.637Z,95.09
2023-02-12T08:06:17.160Z,95.34
2023-02-12T08:08:44.005Z,94.32
2023-02-12T08:11:11.468Z,95.27
2023-02-12T08:13:38.347Z,95.05
2023-02-12T08:16:07.446Z,94.94
2023-02-12T08:18:34.695Z,94.05
2023-02-12T08:21:09.295Z,95.26
2023-02-12T08:23:35.854Z,95.07
2023-02-12T08:26:11.083Z,93.77
2023-02-12T08:28:39.320Z,94.66
2023-02-12T08:31:09.043Z,94.62
2023-02-12T08:33:35.521Z,94.11
2023-02-12T08:36:07.019Z,94.77
2023-02-12T08:38:33.933Z,94.12
2023-02-12T08:41:02.581Z,93.70
2023-02-12T08:43:29.267Z,93.47
2023-02-12T08:46:01.602Z,93.49
2023-02-12T08:48:28.175Z,94.44
2023-02-12T08:50:54.573Z,93.47
2023-02-12T08:53:21.225Z,93.91
2023-02-12T08:55:50.918Z,92.84
2023-02-12T08:58:17.353Z,93.85
2023-02-12T09:00:43.827Z,93.48
2023-02-12T09:03:10.407Z,93.27
2023-02-12T09:05:41.088Z,91.74
2023-02-12T09:08:08.199Z,91.63
2023-02-12T09:10:38.819Z,91.69
2023-02-12T09:13:06.553Z,90.78
2023-02-12T09:15:37.970Z,89.72
2023-02-12T09:18:04.758Z,90.28
2023-02-12T09:20:31.979Z,88.87
2023-02-12T09:22:59.491Z,89.36
2023-02-12T09:25:26.444Z,88.70
2023-02-12T09:27:52.842Z,89.53
2023-02-12T09:30:19.477Z,88.41
2023-02-12T09:32:45.885Z,88.21
2023-02-12T09:35:12.932Z,88.58
2023-02-12T09:37:44.833Z,89.62
2023-02-12T09:40:21.282Z,90.08
2023-02-12T09:43:05.609Z,89.57
2023-02-12T09:45:45.305Z,88.54
2023-02-12T09:48:30.681Z,88.10
2023-02-12T09:50:59.980Z,87.01
2023-02-12T09:53:29.856Z,86.85
2023-02-12T09:55:57.096Z,85.03
2023-02-12T09:58:31.486Z,85.22
2023-02-12T10:00:58.469Z,84.18
2023-02-12T10:03:26.064Z,84.40
2023-02-12T10:06:05.400Z,85.63
2023-02-12T10:08:51.379Z,85.12
2023-02-12T10:11:53.995Z,84.12
2023-02-12T10:14:41.879Z,84.08
2023-02-12T10:17:19.908Z,84.07
2023-02-12T10:20:16.125Z,84.98
2023-02-12T10:22:56.917Z,84.08
2023-02-12T10:25:45.098Z,85.39
2023-02-12T10:28:16.029Z,86.20
2023-02-12T10:30:56.818Z,86.67
2023-02-12T10:33:38.827Z,85.67
2023-02-12T10:36:27.563Z,86.54
2023-02-12T10:39:17.429Z,86.48
2023-02-12T10:41:47.873Z,85.06
2023-02-12T10:44:14.333Z,86.03
2023-02-12T10:46:40.964Z,84.91
2023-02-12T10:49:08.418Z,84.49
2023-02-12T10:51:56.781Z,84.15
2023-02-12T10:54:33.941Z,83.61
2023-02-12T10:57:06.594Z,83.83
2023-02-12T10:59:34.945Z,82.89
2023-02-12T11:02:01.668Z,83.04
2023-02-12T11:04:31.177Z,84.62
2023-02-12T11:07:09.854Z,84.45
2023-02-12T11:09:47.369Z,83.28
2023-02-12T11:12:26.552Z,81.19
2023-02-12T11:14:54.878Z,81.33
2023-02-12T11:17:34.149Z,79.31
2023-02-12T11:20:03.978Z,79.75
2023-02-12T11:22:30.962Z,79.76
2023-02-12T11:25:15.862Z,79.06
2023-02-12T11:27:42.426Z,78.89
2023-02-12T11:30:20.749Z,78.69
2023-02-12T11:32:49.413Z,79.06
2023-02-12T11:35:25.897Z,78.60
2023-02-12T11:37:57.724Z,77.49
2023-02-12T11:40:27.361Z,76.92
2023-02-12T11:43:07.776Z,76.10
2023-02-12T11:45:38.012Z,76.53
2023-02-12T11:48:17.097Z,76.13
2023-02-12T11:50:47.238Z,76.50
2023-02-12T11:53:22.217Z,75.70
2023-02-12T11:55:54.679Z,76.15
2023-02-12T11:58:23.282Z,76.57
2023-02-12T12:01:04.729Z,75.88
2023-02-12T12:03:59.525Z,74.60
2023-02-12T12:06:31.334Z,75.41
2023-02-12T12:09:06.776Z,75.26
2023-02-12T12:12:10.508Z,75.04
2023-02-12T12:15:04.441Z,73.46
2023-02-12T12:18:06.807Z,74.62
2023-02-12T12:20:39.540Z,76.18
2023-02-12T12:23:32.344Z,77.80
2023-02-12T12:26:11.450Z,78.17
2023-02-12T12:29:06.645Z,78.21
2023-02-12T12:31:36.411Z,78.73
2023-02-12T12:34:08.235Z,78.02
2023-02-12T12:36:59.752Z,78.38
2023-02-12T12:39:29.236Z,79.55
2023-02-12T12:42:17.344Z,80.05
2023-02-12T12:45:05.128Z,79.75
2023-02-12T12:47:45.058Z,80.02
2023-02-12T12:50:29.684Z,80.13
2023-02-12T12:53:29.411Z,81.12
2023-02-12T12:56:47.301Z,81.83
2023-02-12T12:59:25.944Z,80.71
2023-02-12T13:02:29.185Z,80.79
2023-02-12T13:05:20.944Z,81.25
2023-02-12T13:08:09.188Z,81.61
2023-02-12T13:10:46.520Z,82.90
2023-02-12T13:13:44.961Z,84.19
2023-02-12T13:16:19.359Z,83.67
2023-02-12T13:18:52.948Z,83.62
2023-02-12T13:21:57.854Z,82.91
2023-02-12T13:24:43.039Z,82.71
2023-02-12T13:27:22.046Z,82.05
2023-02-12T13:29:52.495Z,82.35
2023-02-12T13:32:26.507Z,81.88
2023-02-12T13:34:55.338Z,82.57
2023-02-12T13:37:46.554Z,83.60
2023-02-12T13:40:30.434Z,83.48
2023-02-12T13:43:18.986Z,81.38
2023-02-12T13:45:53.028Z,82.01
2023-02-12T13:48:34.696Z,82.65
2023-02-12T13:51:22.745Z,82.92
2023-02-12T13:54:26.176Z,82.15
2023-02-12T13:56:57.958Z,81.07
2023-02-12T13:59:31.207Z,81.21
2023-02-12T14:01:59.364Z,82.39
2023-02-12T14:04:31.223Z,81.71
2023-02-12T14:07:18.030Z,82.61
2023-02-12T14:09:50.482Z,82.85
2023-02-12T14:12:17.708Z,82.52
2023-02-12T14:14:48.991Z,82.35
2023-02-12T14:17:30.855Z,82.97
2023-02-12T14:20:25.515Z,82.88
2023-02-12T14:22:51.903Z,82.33
2023-02-12T14:25:24.291Z,82.21
2023-02-12T14:27:55.848Z,82.05
2023-02-12T14:30:31.960Z,81.99
2023-02-12T14:33:10.646Z,81.62
2023-02-12T14:35:40.659Z,81.93
2023-02-12T14:38:16.276Z,81.86
2023-02-12T14:40:46.799Z,82.57
2023-02-12T14:43:30.694Z,82.37
2023-02-12T14:46:16.816Z,82.79
2023-02-12T14:48:57.778Z,82.63
2023-02-12T14:51:41.733Z,82.22
2023-02-12T14:54:18.848Z,82.52
2023-02-12T14:56:47.709Z,83.00
2023-02-12T14:59:18.430Z,83.29
2023-02-12T15:01:45.121Z,83.64
2023-02-12T15:04:16.846Z,83.93
2023-02-12T15:06:55.397Z,85.03
2023-02-12T15:09:28.538Z,85.94
2023-02-12T15:12:05.559Z,84.83
2023-02-12T15:14:32.530Z,85.42
2023-02-12T15:17:03.515Z,85.74
2023-02-12T15:19:43.173Z,85.96
2023-02-12T15:22:30.850Z,86.16
2023-02-12T15:25:23.544Z,87.42
2023-02-12T15:27:51.729Z,87.26
2023-02-12T15:30:26.359Z,88.18
2023-02-12T15:32:55.519Z,89.17
2023-02-12T15:35:36.315Z,89.95
2023-02-12T15:38:03.601Z,90.12
2023-02-12T15:40:31.288Z,91.42
2023-02-12T15:43:03.552Z,91.80
2023-02-12T15:45:31.876Z,90.74
2023-02-12T15:48:18.419Z,91.56
2023-02-12T15:51:03.760Z,92.40
2023-02-12T15:53:33.162Z,92.48
2023-02-12T15:56:00.758Z,93.02
2023-02-12T15:58:29.333Z,93.65
2023-02-12T16:01:01.359Z,94.38
2023-02-12T16:03:31.760Z,93.67
2023-02-12T16:06:03.587Z,94.05
2023-02-12T16:08:31.776Z,93.16
2023-02-12T16:10:58.657Z,93.88
2023-02-12T16:13:33.956Z,92.35
2023-02-12T16:16:24.401Z,93.55
2023-02-12T16:19:05.817Z,92.09
2023-02-12T16:21:36.155Z,92.94
2023-02-12T16:24:02.984Z,93.65
2023-02-12T16:26:29.524Z,93.76
2023-02-12T16:28:57.306Z,93.48
2023-02-12T16:31:26.487Z,92.69
2023-02-12T16:33:56.063Z,93.79
2023-02-12T16:36:22.704Z,93.31
2023-02-12T16:39:00.549Z,92.86
2023-02-12T16:41:56.581Z,93.99
2023-02-12T16:44:29.487Z,94.25
2023-02-12T16:46:58.772Z,94.04
2023-02-12T16:49:26.625Z,93.64
2023-02-12T16:51:53.966Z,93.78
2023-02-12T16:54:32.375Z,93.04
2023-02-12T16:57:01.518Z,92.89
2023-02-12T16:59:28.728Z,93.96
2023-02-12T17:02:02.795Z,93.21
2023-02-12T17:04:29.683Z,94.77
2023-02-12T17:06:56.910Z,94.83
2023-02-12T17:09:23.579Z,95.13
2023-02-12T17:11:50.319Z,95.35
2023-02-12T17:14:18.690Z,94.61
2023-02-12T17:16:45.616Z,94.22
2023-02-12T17:19:12.606Z,93.66
2023-02-12T17:21:42.386Z,93.94
2023-02-12T17:24:23.351Z,95.09
2023-02-12T17:26:51.098Z,94.85
2023-02-12T17:29:19.656Z,94.19
2023-02-12T17:31:46.493Z,93.76
2023-02-12T17:34:13.351Z,94.30
2023-02-12T17:36:40.139Z,94.69
2023-02-12T17:39:08.396Z,94.50
2023-02-12T17:41:35.284Z,94.98
2023-02-12T17:44:01.794Z,94.24
2023-02-12T17:46:29.575Z,94.92
2023-02-12T17:48:56.906Z,94.97
2023-02-12T17:51:23.905Z,95.38
2023-02-12T17:53:50.588Z,95.19
2023-02-12T17:56:22.077Z,94.31
2023-02-12T17:58:49.165Z,94.54
2023-02-12T18:01:18.918Z,94.94
2023-02-12T18:03:45.670Z,95.44
2023-02-12T18:06:16.273Z,95.87
2023-02-12T18:08:43.357Z,94.42
2023-02-12T18:11:11.268Z,95.69
2023-02-12T18:13:37.984Z,95.68
2023-02-12T18:16:09.805Z,96.20
2023-02-12T18:18:37.075Z,94.78
2023-02-12T18:21:11.493Z,95.18
2023-02-12T18:23:38.442Z,95.31
2023-02-12T18:26:13.088Z,95.63
2023-02-12T18:28:39.652Z,95.84
2023-02-12T18:31:06.833Z,94.78
2023-02-12T18:33:33.405Z,94.68
2023-02-12T18:36:05.657Z,96.32
2023-02-12T18:38:33.036Z,95.78
2023-02-12T18:41:02.461Z,95.34
2023-02-12T18:43:28.967Z,96.78
2023-02-12T18:45:55.389Z,95.75
2023-02-12T18:48:22.185Z,95.76
2023-02-12T18:50:51.728Z,95.83
2023-02-12T18:53:18.941Z,95.71
2023-02-12T18:55:45.513Z,96.11
2023-02-12T18:58:12.258Z,96.27
2023-02-12T19:00:38.845Z,95.63
2023-02-12T19:03:05.301Z,96.50
2023-02-12T19:05:32.006Z,96.80
2023-02-12T19:07:58.419Z,96.38
2023-02-12T19:10:24.876Z,96.14
2023-02-12T19:12:51.450Z,95.94
2023-02-12T19:15:18.161Z,95.84
2023-02-12T19:17:44.612Z,96.55
2023-02-12T19:20:11.824Z,96.92
2023-02-12T19:22:39.804Z,96.17
2023-02-12T19:25:06.847Z,96.96
2023-02-12T19:27:33.597Z,95.49
2023-02-12T19:30:01.055Z,95.82
2023-02-12T19:32:27.532Z,95.44
2023-02-12T19:34:54.481Z,96.28
2023-02-12T19:37:21.023Z,96.55
2023-02-12T19:39:47.528Z,96.42
2023-02-12T19:42:14.955Z,95.21
2023-02-12T19:44:41.488Z,97.11
2023-02-12T19:47:08.944Z,96.23
2023-02-12T19:49:35.451Z,96.27
2023-02-12T19:52:01.967Z,96.74
2023-02-12T19:54:28.652Z,96.23
2023-02-12T19:56:55.417Z,96.90
2023-02-12T19:59:23.964Z,95.49
2023-02-12T20:01:50.733Z,96.87
2023-02-12T20:04:19.428Z,95.88
2023-02-12T20:06:46.803Z,96.98
2023-02-12T20:09:13.639Z,97.17
2023-02-12T20:11:40.224Z,96.18
2023-02-12T20:14:09.783Z,97.17
2023-02-12T20:16:38.305Z,96.00
2023-02-12T20:19:09.618Z,96.58
2023-02-12T20:21:36.237Z,96.29
2023-02-12T20:24:02.751Z,96.65
2023-02-12T20:26:32.256Z,96.34
2023-02-12T20:28:59.754Z,96.25
2023-02-12T20:31:31.773Z,95.43
2023-02-12T20:34:01.587Z,96.21
2023-02-12T20:36:31.783Z,96.17
2023-02-12T20:38:58.599Z,97.02
2023-02-12T20:41:26.771Z,96.25
2023-02-12T20:43:54.119Z,96.75
2023-02-12T20:46:22.576Z,95.68
2023-02-12T20:48:49.466Z,95.60
2023-02-12T20:51:18.445Z,95.89
2023-02-12T20:53:45.558Z,95.95
2023-02-12T20:56:14.638Z,96.90
2023-02-12T20:58:44.776Z,96.63
2023-02-12T21:01:23.554Z,96.42
2023-02-12T21:03:51.599Z,96.44
2023-02-12T21:06:19.106Z,96.50
2023-02-12T21:08:46.191Z,96.46
2023-02-12T21:11:16.042Z,96.53
2023-02-12T21:13:53.678Z,94.64
2023-02-12T21:16:34.539Z,95.47
2023-02-12T21:19:01.156Z,95.31
2023-02-12T21:21:33.270Z,96.35
2023-02-12T21:24:01.257Z,95.79
2023-02-12T21:26:29.735Z,95.57
2023-02-12T21:28:58.488Z,96.05
2023-02-12T21:31:27.638Z,96.62
2023-02-12T21:33:55.708Z,96.19
2023-02-12T21:36:24.750Z,96.42
2023-02-12T21:38:51.902Z,95.84
2023-02-12T21:41:25.259Z,96.70
2023-02-12T21:43:53.939Z,95.18
2023-02-12T21:46:22.493Z,96.50
2023-02-12T21:48:50.081Z,96.37
2023-02-12T21:51:20.096Z,96.38
2023-02-12T21:53:47.828Z,96.34
2023-02-12T21:56:14.720Z,96.21
2023-02-12T21:58:41.530Z,96.59
2023-02-12T22:01:09.666Z,96.16
2023-02-12T22:03:37.015Z,96.34
2023-02-12T22:06:05.279Z,95.67
2023-02-12T22:08:32.175Z,97.04
2023-02-12T22:11:01.886Z,97.14
2023-02-12T22:13:29.574Z,96.00
2023-02-12T22:15:56.819Z,95.32
2023-02-12T22:18:23.293Z,96.21
2023-02-12T22:20:49.679Z,95.08
2023-02-12T22:23:16.438Z,95.66
2023-02-12T22:25:42.910Z,95.27
2023-02-12T22:28:09.464Z,96.02
2023-02-12T22:30:36.185Z,95.74
2023-02-12T22:33:02.876Z,96.50
2023-02-12T22:35:29.318Z,96.01
2023-02-12T22:37:55.689Z,96.26
2023-02-12T22:40:22.144Z,96.54
2023-02-12T22:42:48.744Z,96.17
2023-02-12T22:45:15.246Z,96.22
2023-02-12T22:47:41.788Z,96.32
2023-02-12T22:50:08.648Z,95.94
2023-02-12T22:52:35.073Z,96.28
2023-02-12T22:55:01.468Z,95.76
2023-02-12T22:57:27.949Z,96.25
2023-02-12T22:59:54.349Z,95.25
2023-02-12T23:02:20.821Z,95.71
2023-02-12T23:04:47.204Z,95.39
2023-02-12T23:07:13.617Z,95.67
2023-02-12T23:09:40.087Z,96.48
2023-02-12T23:12:07.965Z,97.25
2023-02-12T23:14:36.032Z,97.72
2023-02-12T23:17:05.766Z,98.24
2023-02-12T23:19:32.243Z,96.89
2023-02-12T23:21:59.123Z,97.32
2023-02-12T23:24:25.918Z,97.37
2023-02-12T23:26:53.575Z,96.14
2023-02-12T23:29:20.543Z,96.17
2023-02-12T23:31:47.115Z,96.07
2023-02-12T23:34:13.821Z,96.98
2023-02-12T23:36:40.226Z,97.20
2023-02-12T23:39:07.008Z,96.87
2023-02-12T23:41:33.430Z,97.04
2023-02-12T23:43:59.914Z,96.45
2023-02-12T23:46:26.434Z,96.82
2023-02-12T23:48:53.004Z,96.60
2023-02-12T23:51:19.453Z,96.69
2023-02-12T23:53:45.943Z,96.55
2023-02-12T23:56:12.411Z,96.25
2023-02-12T23:58:38.906Z,96.10
